sensor_id;sensor_type;location;lat;lon;timestamp;P1;durP1;ratioP1;P2;durP2;ratioP2
64887;SDS011;51386;53.082;8.816;2023-07-29T00:01:41;10.33;;;9.33;;
64887;SDS011;51386;53.082;8.816;2023-07-29T00:04:08;10.30;;;9.30;;
64887;SDS011;51386;53.082;8.816;2023-07-29T00:06:35;11.93;;;8.77;;
64887;SDS011;51386;53.082;8.816;2023-07-29T00:09:03;8.00;;;7.27;;
64887;SDS011;51386;53.082;8.816;2023-07-29T00:11:30;9.80;;;8.60;;
64887;SDS011;51386;53.082;8.816;2023-07-29T00:14:01;7.53;;;6.87;;
64887;SDS011;51386;53.082;8.816;2023-07-29T00:16:28;9.13;;;8.23;;
64887;SDS011;51386;53.082;8.816;2023-07-29T00:18:55;8.77;;;7.83;;
64887;SDS011;51386;53.082;8.816;2023-07-29T00:21:22;8.93;;;8.03;;
64887;SDS011;51386;53.082;8.816;2023-07-29T00:23:49;12.40;;;10.33;;
64887;SDS011;51386;53.082;8.816;2023-07-29T00:26:16;9.93;;;8.93;;
64887;SDS011;51386;53.082;8.816;2023-07-29T00:28:43;8.93;;;7.93;;
64887;SDS011;51386;53.082;8.816;2023-07-29T00:31:12;11.53;;;10.33;;
64887;SDS011;51386;53.082;8.816;2023-07-29T00:33:39;13.83;;;11.93;;
64887;SDS011;51386;53.082;8.816;2023-07-29T00:36:06;10.67;;;9.53;;
64887;SDS011;51386;53.082;8.816;2023-07-29T00:38:33;12.27;;;8.83;;
64887;SDS011;51386;53.082;8.816;2023-07-29T00:41:00;10.37;;;9.20;;
64887;SDS011;51386;53.082;8.816;2023-07-29T00:43:29;8.40;;;7.60;;
64887;SDS011;51386;53.082;8.816;2023-07-29T00:45:56;9.87;;;7.83;;
64887;SDS011;51386;53.082;8.816;2023-07-29T00:48:27;9.27;;;8.37;;
64887;SDS011;51386;53.082;8.816;2023-07-29T00:50:54;12.43;;;10.83;;
64887;SDS011;51386;53.082;8.816;2023-07-29T00:53:21;11.13;;;9.37;;
64887;SDS011;51386;53.082;8.816;2023-07-29T00:55:48;11.97;;;10.30;;
64887;SDS011;51386;53.082;8.816;2023-07-29T00:58:16;12.00;;;10.83;;
64887;SDS011;51386;53.082;8.816;2023-07-29T01:00:43;10.97;;;9.87;;
64887;SDS011;51386;53.082;8.816;2023-07-29T01:03:10;10.53;;;9.53;;
64887;SDS011;51386;53.082;8.816;2023-07-29T01:05:40;11.87;;;10.67;;
64887;SDS011;51386;53.082;8.816;2023-07-29T01:08:25;11.70;;;10.70;;
64887;SDS011;51386;53.082;8.816;2023-07-29T01:11:11;15.80;;;10.57;;
64887;SDS011;51386;53.082;8.816;2023-07-29T01:13:58;11.90;;;10.70;;
64887;SDS011;51386;53.082;8.816;2023-07-29T01:16:34;10.50;;;9.50;;
64887;SDS011;51386;53.082;8.816;2023-07-29T01:19:11;13.80;;;11.57;;
64887;SDS011;51386;53.082;8.816;2023-07-29T01:21:57;11.53;;;10.33;;
64887;SDS011;51386;53.082;8.816;2023-07-29T01:24:27;13.37;;;11.97;;
64887;SDS011;51386;53.082;8.816;2023-07-29T01:26:54;13.13;;;11.80;;
64887;SDS011;51386;53.082;8.816;2023-07-29T01:29:21;11.97;;;10.87;;
64887;SDS011;51386;53.082;8.816;2023-07-29T01:31:48;13.70;;;12.40;;
64887;SDS011;51386;53.082;8.816;2023-07-29T01:34:23;12.50;;;11.27;;
64887;SDS011;51386;53.082;8.816;2023-07-29T01:36:56;13.17;;;11.87;;
64887;SDS011;51386;53.082;8.816;2023-07-29T01:39:30;13.00;;;9.73;;
64887;SDS011;51386;53.082;8.816;2023-07-29T01:42:02;12.60;;;11.40;;
64887;SDS011;51386;53.082;8.816;2023-07-29T01:44:30;14.13;;;12.13;;
64887;SDS011;51386;53.082;8.816;2023-07-29T01:46:59;13.87;;;12.53;;
64887;SDS011;51386;53.082;8.816;2023-07-29T01:49:26;12.77;;;11.57;;
64887;SDS011;51386;53.082;8.816;2023-07-29T01:51:53;12.57;;;11.37;;
64887;SDS011;51386;53.082;8.816;2023-07-29T01:54:20;12.90;;;11.73;;
64887;SDS011;51386;53.082;8.816;2023-07-29T01:56:48;12.67;;;11.37;;
64887;SDS011;51386;53.082;8.816;2023-07-29T01:59:17;11.87;;;10.73;;
64887;SDS011;51386;53.082;8.816;2023-07-29T02:01:44;14.83;;;13.33;;
64887;SDS011;51386;53.082;8.816;2023-07-29T02:08:18;12.53;;;11.30;;
64887;SDS011;51386;53.082;8.816;2023-07-29T02:10:45;12.23;;;11.03;;
64887;SDS011;51386;53.082;8.816;2023-07-29T02:13:14;14.03;;;12.63;;
64887;SDS011;51386;53.082;8.816;2023-07-29T02:15:41;12.97;;;11.63;;
64887;SDS011;51386;53.082;8.816;2023-07-29T02:18:08;14.63;;;12.43;;
64887;SDS011;51386;53.082;8.816;2023-07-29T02:20:35;13.63;;;12.27;;
64887;SDS011;51386;53.082;8.816;2023-07-29T02:23:02;15.70;;;14.30;;
64887;SDS011;51386;53.082;8.816;2023-07-29T02:25:29;14.10;;;12.80;;
64887;SDS011;51386;53.082;8.816;2023-07-29T02:27:56;14.73;;;13.17;;
64887;SDS011;51386;53.082;8.816;2023-07-29T02:30:24;14.33;;;12.93;;
64887;SDS011;51386;53.082;8.816;2023-07-29T02:32:51;16.50;;;14.27;;
64887;SDS011;51386;53.082;8.816;2023-07-29T02:35:18;14.30;;;12.83;;
64887;SDS011;51386;53.082;8.816;2023-07-29T02:37:45;15.33;;;13.83;;
64887;SDS011;51386;53.082;8.816;2023-07-29T02:40:12;15.87;;;13.63;;
64887;SDS011;51386;53.082;8.816;2023-07-29T02:42:39;15.00;;;13.43;;
64887;SDS011;51386;53.082;8.816;2023-07-29T02:45:07;14.23;;;12.93;;
64887;SDS011;51386;53.082;8.816;2023-07-29T02:47:37;15.00;;;13.53;;
64887;SDS011;51386;53.082;8.816;2023-07-29T02:50:05;13.77;;;12.53;;
64887;SDS011;51386;53.082;8.816;2023-07-29T02:52:33;15.17;;;13.63;;
64887;SDS011;51386;53.082;8.816;2023-07-29T02:55:00;14.23;;;12.77;;
64887;SDS011;51386;53.082;8.816;2023-07-29T02:57:27;15.17;;;13.67;;
64887;SDS011;51386;53.082;8.816;2023-07-29T02:59:54;14.67;;;13.17;;
64887;SDS011;51386;53.082;8.816;2023-07-29T03:02:21;15.17;;;13.77;;
64887;SDS011;51386;53.082;8.816;2023-07-29T03:04:50;15.27;;;13.70;;
64887;SDS011;51386;53.082;8.816;2023-07-29T03:07:17;16.07;;;14.47;;
64887;SDS011;51386;53.082;8.816;2023-07-29T03:09:44;22.10;;;15.70;;
64887;SDS011;51386;53.082;8.816;2023-07-29T03:12:11;16.00;;;14.40;;
64887;SDS011;51386;53.082;8.816;2023-07-29T03:14:38;16.23;;;14.40;;
64887;SDS011;51386;53.082;8.816;2023-07-29T03:17:07;16.60;;;14.90;;
64887;SDS011;51386;53.082;8.816;2023-07-29T03:19:34;17.40;;;15.60;;
64887;SDS011;51386;53.082;8.816;2023-07-29T03:22:03;17.07;;;15.43;;
64887;SDS011;51386;53.082;8.816;2023-07-29T03:24:30;16.33;;;14.63;;
64887;SDS011;51386;53.082;8.816;2023-07-29T03:26:57;16.67;;;14.97;;
64887;SDS011;51386;53.082;8.816;2023-07-29T03:29:24;17.33;;;15.53;;
64887;SDS011;51386;53.082;8.816;2023-07-29T03:31:51;16.83;;;14.93;;
64887;SDS011;51386;53.082;8.816;2023-07-29T03:34:18;18.50;;;16.53;;
64887;SDS011;51386;53.082;8.816;2023-07-29T03:36:45;17.57;;;15.87;;
64887;SDS011;51386;53.082;8.816;2023-07-29T03:39:15;14.87;;;13.37;;
64887;SDS011;51386;53.082;8.816;2023-07-29T03:41:42;15.87;;;14.37;;
64887;SDS011;51386;53.082;8.816;2023-07-29T03:44:09;16.10;;;14.43;;
64887;SDS011;51386;53.082;8.816;2023-07-29T03:46:36;14.90;;;13.50;;
64887;SDS011;51386;53.082;8.816;2023-07-29T03:49:04;17.27;;;15.13;;
64887;SDS011;51386;53.082;8.816;2023-07-29T03:51:31;16.73;;;15.10;;
64887;SDS011;51386;53.082;8.816;2023-07-29T03:53:58;15.80;;;14.27;;
64887;SDS011;51386;53.082;8.816;2023-07-29T03:56:26;12.50;;;11.10;;
64887;SDS011;51386;53.082;8.816;2023-07-29T03:58:53;17.00;;;12.30;;
64887;SDS011;51386;53.082;8.816;2023-07-29T04:01:28;14.33;;;12.83;;
64887;SDS011;51386;53.082;8.816;2023-07-29T04:03:55;12.17;;;11.03;;
64887;SDS011;51386;53.082;8.816;2023-07-29T04:06:22;14.80;;;13.40;;
64887;SDS011;51386;53.082;8.816;2023-07-29T04:08:49;15.57;;;13.60;;
64887;SDS011;51386;53.082;8.816;2023-07-29T04:11:17;15.87;;;14.13;;
64887;SDS011;51386;53.082;8.816;2023-07-29T04:13:45;14.53;;;13.10;;
64887;SDS011;51386;53.082;8.816;2023-07-29T04:16:12;14.77;;;13.30;;
64887;SDS011;51386;53.082;8.816;2023-07-29T04:18:39;15.63;;;14.13;;
64887;SDS011;51386;53.082;8.816;2023-07-29T04:21:06;15.23;;;13.63;;
64887;SDS011;51386;53.082;8.816;2023-07-29T04:23:33;16.07;;;13.77;;
64887;SDS011;51386;53.082;8.816;2023-07-29T04:26:01;15.53;;;13.80;;
64887;SDS011;51386;53.082;8.816;2023-07-29T04:28:28;15.57;;;13.93;;
64887;SDS011;51386;53.082;8.816;2023-07-29T04:30:57;14.47;;;13.07;;
64887;SDS011;51386;53.082;8.816;2023-07-29T04:33:24;15.63;;;14.03;;
64887;SDS011;51386;53.082;8.816;2023-07-29T04:35:51;14.50;;;13.20;;
64887;SDS011;51386;53.082;8.816;2023-07-29T04:38:18;13.97;;;12.67;;
64887;SDS011;51386;53.082;8.816;2023-07-29T04:40:45;16.23;;;12.77;;
64887;SDS011;51386;53.082;8.816;2023-07-29T04:43:11;13.77;;;12.37;;
64887;SDS011;51386;53.082;8.816;2023-07-29T04:45:41;15.00;;;12.40;;
64887;SDS011;51386;53.082;8.816;2023-07-29T04:48:11;14.33;;;12.93;;
64887;SDS011;51386;53.082;8.816;2023-07-29T04:50:38;14.30;;;12.80;;
64887;SDS011;51386;53.082;8.816;2023-07-29T04:53:05;14.87;;;13.37;;
64887;SDS011;51386;53.082;8.816;2023-07-29T04:55:32;12.63;;;11.33;;
64887;SDS011;51386;53.082;8.816;2023-07-29T04:57:59;16.03;;;14.43;;
64887;SDS011;51386;53.082;8.816;2023-07-29T05:00:26;14.97;;;13.37;;
64887;SDS011;51386;53.082;8.816;2023-07-29T05:02:53;14.63;;;13.23;;
64887;SDS011;51386;53.082;8.816;2023-07-29T05:05:21;13.70;;;12.40;;
64887;SDS011;51386;53.082;8.816;2023-07-29T05:07:48;14.23;;;12.87;;
64887;SDS011;51386;53.082;8.816;2023-07-29T05:10:15;13.97;;;12.60;;
64887;SDS011;51386;53.082;8.816;2023-07-29T05:12:43;14.10;;;12.57;;
64887;SDS011;51386;53.082;8.816;2023-07-29T05:15:10;13.27;;;11.97;;
64887;SDS011;51386;53.082;8.816;2023-07-29T05:17:37;13.57;;;12.20;;
64887;SDS011;51386;53.082;8.816;2023-07-29T05:20:05;11.07;;;10.07;;
64887;SDS011;51386;53.082;8.816;2023-07-29T05:22:35;12.87;;;11.67;;
64887;SDS011;51386;53.082;8.816;2023-07-29T05:25:02;12.93;;;11.50;;
64887;SDS011;51386;53.082;8.816;2023-07-29T05:27:30;12.43;;;11.13;;
64887;SDS011;51386;53.082;8.816;2023-07-29T05:29:57;12.50;;;11.33;;
64887;SDS011;51386;53.082;8.816;2023-07-29T05:32:24;12.07;;;10.87;;
64887;SDS011;51386;53.082;8.816;2023-07-29T05:34:51;11.83;;;10.63;;
64887;SDS011;51386;53.082;8.816;2023-07-29T05:37:18;10.73;;;9.70;;
64887;SDS011;51386;53.082;8.816;2023-07-29T05:39:46;9.73;;;8.73;;
64887;SDS011;51386;53.082;8.816;2023-07-29T05:42:13;10.17;;;9.17;;
64887;SDS011;51386;53.082;8.816;2023-07-29T05:44:40;12.73;;;10.47;;
64887;SDS011;51386;53.082;8.816;2023-07-29T05:47:08;10.93;;;9.83;;
64887;SDS011;51386;53.082;8.816;2023-07-29T05:49:35;10.53;;;9.63;;
64887;SDS011;51386;53.082;8.816;2023-07-29T05:52:02;8.90;;;8.10;;
64887;SDS011;51386;53.082;8.816;2023-07-29T05:54:29;10.20;;;8.87;;
64887;SDS011;51386;53.082;8.816;2023-07-29T05:56:57;10.30;;;9.30;;
64887;SDS011;51386;53.082;8.816;2023-07-29T05:59:24;10.20;;;9.30;;
64887;SDS011;51386;53.082;8.816;2023-07-29T06:01:51;10.43;;;9.33;;
64887;SDS011;51386;53.082;8.816;2023-07-29T06:04:18;10.00;;;9.00;;
64887;SDS011;51386;53.082;8.816;2023-07-29T06:06:45;12.00;;;9.60;;
64887;SDS011;51386;53.082;8.816;2023-07-29T06:09:12;10.87;;;8.80;;
64887;SDS011;51386;53.082;8.816;2023-07-29T06:11:39;10.73;;;9.73;;
64887;SDS011;51386;53.082;8.816;2023-07-29T06:14:08;10.53;;;9.47;;
64887;SDS011;51386;53.082;8.816;2023-07-29T06:16:35;10.23;;;9.27;;
64887;SDS011;51386;53.082;8.816;2023-07-29T06:19:02;9.23;;;8.37;;
64887;SDS011;51386;53.082;8.816;2023-07-29T06:21:29;9.43;;;8.63;;
64887;SDS011;51386;53.082;8.816;2023-07-29T06:23:56;9.27;;;7.73;;
64887;SDS011;51386;53.082;8.816;2023-07-29T06:26:23;9.57;;;8.77;;
64887;SDS011;51386;53.082;8.816;2023-07-29T06:28:50;9.00;;;8.20;;
64887;SDS011;51386;53.082;8.816;2023-07-29T06:31:18;10.00;;;9.10;;
64887;SDS011;51386;53.082;8.816;2023-07-29T06:33:46;10.20;;;9.27;;
64887;SDS011;51386;53.082;8.816;2023-07-29T06:36:13;10.90;;;9.90;;
64887;SDS011;51386;53.082;8.816;2023-07-29T06:38:40;11.83;;;10.87;;
64887;SDS011;51386;53.082;8.816;2023-07-29T06:41:08;11.70;;;10.60;;
64887;SDS011;51386;53.082;8.816;2023-07-29T06:43:38;13.33;;;12.10;;
64887;SDS011;51386;53.082;8.816;2023-07-29T06:46:05;12.03;;;10.93;;
64887;SDS011;51386;53.082;8.816;2023-07-29T06:48:33;11.90;;;10.80;;
64887;SDS011;51386;53.082;8.816;2023-07-29T06:51:00;11.53;;;10.33;;
64887;SDS011;51386;53.082;8.816;2023-07-29T06:53:28;10.77;;;9.77;;
64887;SDS011;51386;53.082;8.816;2023-07-29T06:55:59;11.40;;;10.40;;
64887;SDS011;51386;53.082;8.816;2023-07-29T06:58:27;11.23;;;10.23;;
64887;SDS011;51386;53.082;8.816;2023-07-29T07:00:54;9.73;;;8.93;;
64887;SDS011;51386;53.082;8.816;2023-07-29T07:03:23;12.43;;;11.23;;
64887;SDS011;51386;53.082;8.816;2023-07-29T07:05:51;11.83;;;10.83;;
64887;SDS011;51386;53.082;8.816;2023-07-29T07:08:18;12.87;;;11.77;;
64887;SDS011;51386;53.082;8.816;2023-07-29T07:10:46;14.77;;;13.10;;
64887;SDS011;51386;53.082;8.816;2023-07-29T07:13:13;11.37;;;10.40;;
64887;SDS011;51386;53.082;8.816;2023-07-29T07:15:40;12.17;;;11.07;;
64887;SDS011;51386;53.082;8.816;2023-07-29T07:18:07;11.80;;;10.80;;
64887;SDS011;51386;53.082;8.816;2023-07-29T07:20:35;12.53;;;11.43;;
64887;SDS011;51386;53.082;8.816;2023-07-29T07:23:04;11.67;;;10.40;;
64887;SDS011;51386;53.082;8.816;2023-07-29T07:25:37;11.17;;;9.60;;
64887;SDS011;51386;53.082;8.816;2023-07-29T07:28:04;9.47;;;8.63;;
64887;SDS011;51386;53.082;8.816;2023-07-29T07:30:31;10.23;;;8.93;;
64887;SDS011;51386;53.082;8.816;2023-07-29T07:32:58;9.97;;;8.97;;
64887;SDS011;51386;53.082;8.816;2023-07-29T07:35:25;8.33;;;7.43;;
64887;SDS011;51386;53.082;8.816;2023-07-29T07:37:53;9.63;;;8.73;;
64887;SDS011;51386;53.082;8.816;2023-07-29T07:40:21;7.80;;;7.10;;
64887;SDS011;51386;53.082;8.816;2023-07-29T07:42:48;9.47;;;8.67;;
64887;SDS011;51386;53.082;8.816;2023-07-29T07:45:15;8.73;;;7.93;;
64887;SDS011;51386;53.082;8.816;2023-07-29T07:47:44;8.13;;;7.33;;
64887;SDS011;51386;53.082;8.816;2023-07-29T07:50:11;7.77;;;7.17;;
64887;SDS011;51386;53.082;8.816;2023-07-29T07:52:38;7.63;;;7.03;;
64887;SDS011;51386;53.082;8.816;2023-07-29T07:55:05;6.07;;;5.47;;
64887;SDS011;51386;53.082;8.816;2023-07-29T07:57:35;6.57;;;5.63;;
64887;SDS011;51386;53.082;8.816;2023-07-29T08:00:03;8.00;;;7.20;;
64887;SDS011;51386;53.082;8.816;2023-07-29T08:02:31;7.77;;;6.17;;
64887;SDS011;51386;53.082;8.816;2023-07-29T08:04:58;7.00;;;6.40;;
64887;SDS011;51386;53.082;8.816;2023-07-29T08:07:25;6.93;;;6.33;;
64887;SDS011;51386;53.082;8.816;2023-07-29T08:09:52;5.73;;;4.90;;
64887;SDS011;51386;53.082;8.816;2023-07-29T08:12:19;5.33;;;4.93;;
64887;SDS011;51386;53.082;8.816;2023-07-29T08:14:48;5.50;;;4.47;;
64887;SDS011;51386;53.082;8.816;2023-07-29T08:17:15;5.87;;;3.77;;
64887;SDS011;51386;53.082;8.816;2023-07-29T08:19:42;4.80;;;4.40;;
64887;SDS011;51386;53.082;8.816;2023-07-29T08:22:09;7.20;;;4.17;;
64887;SDS011;51386;53.082;8.816;2023-07-29T08:24:36;3.93;;;3.63;;
64887;SDS011;51386;53.082;8.816;2023-07-29T08:27:03;4.67;;;4.27;;
64887;SDS011;51386;53.082;8.816;2023-07-29T08:29:30;3.70;;;3.40;;
64887;SDS011;51386;53.082;8.816;2023-07-29T08:31:59;3.73;;;3.10;;
64887;SDS011;51386;53.082;8.816;2023-07-29T08:34:26;4.80;;;3.13;;
64887;SDS011;51386;53.082;8.816;2023-07-29T08:36:53;2.90;;;2.60;;
64887;SDS011;51386;53.082;8.816;2023-07-29T08:39:20;4.27;;;2.70;;
64887;SDS011;51386;53.082;8.816;2023-07-29T08:41:49;4.53;;;2.90;;
64887;SDS011;51386;53.082;8.816;2023-07-29T08:44:25;2.73;;;2.03;;
64887;SDS011;51386;53.082;8.816;2023-07-29T08:46:59;2.50;;;2.10;;
64887;SDS011;51386;53.082;8.816;2023-07-29T08:49:26;3.27;;;2.60;;
64887;SDS011;51386;53.082;8.816;2023-07-29T08:51:54;2.40;;;1.90;;
64887;SDS011;51386;53.082;8.816;2023-07-29T08:54:24;2.93;;;2.20;;
64887;SDS011;51386;53.082;8.816;2023-07-29T08:56:52;3.97;;;2.50;;
64887;SDS011;51386;53.082;8.816;2023-07-29T08:59:19;2.50;;;1.90;;
64887;SDS011;51386;53.082;8.816;2023-07-29T09:01:47;3.53;;;2.40;;
64887;SDS011;51386;53.082;8.816;2023-07-29T09:04:16;3.10;;;2.80;;
64887;SDS011;51386;53.082;8.816;2023-07-29T09:06:44;4.60;;;3.13;;
64887;SDS011;51386;53.082;8.816;2023-07-29T09:09:15;2.03;;;1.80;;
64887;SDS011;51386;53.082;8.816;2023-07-29T09:11:43;2.53;;;2.30;;
64887;SDS011;51386;53.082;8.816;2023-07-29T09:14:10;3.20;;;2.20;;
64887;SDS011;51386;53.082;8.816;2023-07-29T09:16:39;2.40;;;2.20;;
64887;SDS011;51386;53.082;8.816;2023-07-29T09:19:07;2.70;;;2.37;;
64887;SDS011;51386;53.082;8.816;2023-07-29T09:21:37;2.70;;;2.50;;
64887;SDS011;51386;53.082;8.816;2023-07-29T09:24:06;3.13;;;2.83;;
64887;SDS011;51386;53.082;8.816;2023-07-29T09:26:34;5.97;;;3.30;;
64887;SDS011;51386;53.082;8.816;2023-07-29T09:29:03;3.17;;;2.97;;
64887;SDS011;51386;53.082;8.816;2023-07-29T09:31:30;3.30;;;3.00;;
64887;SDS011;51386;53.082;8.816;2023-07-29T09:33:57;4.10;;;2.83;;
64887;SDS011;51386;53.082;8.816;2023-07-29T09:36:26;3.57;;;2.47;;
64887;SDS011;51386;53.082;8.816;2023-07-29T09:38:58;2.43;;;2.00;;
64887;SDS011;51386;53.082;8.816;2023-07-29T09:41:25;2.20;;;2.00;;
64887;SDS011;51386;53.082;8.816;2023-07-29T09:43:58;2.93;;;2.27;;
64887;SDS011;51386;53.082;8.816;2023-07-29T09:46:31;1.57;;;1.47;;
64887;SDS011;51386;53.082;8.816;2023-07-29T09:49:02;2.13;;;1.97;;
64887;SDS011;51386;53.082;8.816;2023-07-29T09:51:30;2.20;;;2.00;;
64887;SDS011;51386;53.082;8.816;2023-07-29T09:54:02;2.10;;;2.00;;
64887;SDS011;51386;53.082;8.816;2023-07-29T09:56:29;3.20;;;2.50;;
64887;SDS011;51386;53.082;8.816;2023-07-29T09:58:57;2.50;;;2.30;;
64887;SDS011;51386;53.082;8.816;2023-07-29T10:01:25;3.15;;;2.80;;
64887;SDS011;51386;53.082;8.816;2023-07-29T10:03:52;3.67;;;2.97;;
64887;SDS011;51386;53.082;8.816;2023-07-29T10:06:23;2.83;;;2.60;;
64887;SDS011;51386;53.082;8.816;2023-07-29T10:08:51;2.22;;;2.13;;
64887;SDS011;51386;53.082;8.816;2023-07-29T10:11:20;2.22;;;2.13;;
64887;SDS011;51386;53.082;8.816;2023-07-29T10:13:48;2.67;;;2.47;;
64887;SDS011;51386;53.082;8.816;2023-07-29T10:16:34;3.90;;;3.05;;
64887;SDS011;51386;53.082;8.816;2023-07-29T10:19:03;2.70;;;2.42;;
64887;SDS011;51386;53.082;8.816;2023-07-29T10:21:31;2.67;;;2.47;;
64887;SDS011;51386;53.082;8.816;2023-07-29T10:24:00;2.33;;;2.03;;
64887;SDS011;51386;53.082;8.816;2023-07-29T10:26:33;2.47;;;2.03;;
64887;SDS011;51386;53.082;8.816;2023-07-29T10:29:09;2.20;;;2.10;;
64887;SDS011;51386;53.082;8.816;2023-07-29T10:31:40;3.20;;;2.63;;
64887;SDS011;51386;53.082;8.816;2023-07-29T10:34:10;2.47;;;2.00;;
64887;SDS011;51386;53.082;8.816;2023-07-29T10:36:39;1.90;;;1.80;;
64887;SDS011;51386;53.082;8.816;2023-07-29T10:39:07;3.22;;;1.92;;
64887;SDS011;51386;53.082;8.816;2023-07-29T10:41:57;5.35;;;2.15;;
64887;SDS011;51386;53.082;8.816;2023-07-29T10:47:16;2.00;;;1.90;;
64887;SDS011;51386;53.082;8.816;2023-07-29T10:49:46;2.78;;;2.55;;
64887;SDS011;51386;53.082;8.816;2023-07-29T10:52:27;3.75;;;1.95;;
64887;SDS011;51386;53.082;8.816;2023-07-29T10:54:57;7.33;;;2.20;;
64887;SDS011;51386;53.082;8.816;2023-07-29T10:57:33;2.20;;;2.10;;
64887;SDS011;51386;53.082;8.816;2023-07-29T11:00:02;3.33;;;2.00;;
64887;SDS011;51386;53.082;8.816;2023-07-29T11:02:32;3.03;;;2.13;;
64887;SDS011;51386;53.082;8.816;2023-07-29T11:05:04;2.23;;;2.10;;
64887;SDS011;51386;53.082;8.816;2023-07-29T11:07:43;3.47;;;2.13;;
64887;SDS011;51386;53.082;8.816;2023-07-29T11:10:11;1.87;;;1.77;;
64887;SDS011;51386;53.082;8.816;2023-07-29T11:12:45;2.03;;;1.93;;
64887;SDS011;51386;53.082;8.816;2023-07-29T11:15:15;2.00;;;1.90;;
64887;SDS011;51386;53.082;8.816;2023-07-29T11:17:45;2.07;;;1.87;;
64887;SDS011;51386;53.082;8.816;2023-07-29T11:20:15;2.07;;;1.97;;
64887;SDS011;51386;53.082;8.816;2023-07-29T11:22:44;2.13;;;1.90;;
64887;SDS011;51386;53.082;8.816;2023-07-29T11:25:12;1.93;;;1.83;;
64887;SDS011;51386;53.082;8.816;2023-07-29T11:27:41;1.80;;;1.70;;
64887;SDS011;51386;53.082;8.816;2023-07-29T11:30:10;2.17;;;1.60;;
64887;SDS011;51386;53.082;8.816;2023-07-29T11:32:39;2.97;;;2.00;;
64887;SDS011;51386;53.082;8.816;2023-07-29T11:35:09;2.27;;;1.90;;
64887;SDS011;51386;53.082;8.816;2023-07-29T11:37:39;1.63;;;1.53;;
64887;SDS011;51386;53.082;8.816;2023-07-29T11:40:07;2.70;;;2.00;;
64887;SDS011;51386;53.082;8.816;2023-07-29T11:42:37;3.13;;;1.90;;
64887;SDS011;51386;53.082;8.816;2023-07-29T11:45:05;2.07;;;1.97;;
64887;SDS011;51386;53.082;8.816;2023-07-29T11:47:35;2.10;;;1.90;;
64887;SDS011;51386;53.082;8.816;2023-07-29T11:50:04;2.23;;;2.03;;
64887;SDS011;51386;53.082;8.816;2023-07-29T11:52:33;3.27;;;2.03;;
64887;SDS011;51386;53.082;8.816;2023-07-29T11:55:01;1.80;;;1.70;;
64887;SDS011;51386;53.082;8.816;2023-07-29T11:57:30;2.07;;;1.77;;
64887;SDS011;51386;53.082;8.816;2023-07-29T11:59:57;2.10;;;1.90;;
64887;SDS011;51386;53.082;8.816;2023-07-29T12:02:24;1.80;;;1.70;;
64887;SDS011;51386;53.082;8.816;2023-07-29T12:04:54;1.60;;;1.50;;
64887;SDS011;51386;53.082;8.816;2023-07-29T12:07:23;2.60;;;1.70;;
64887;SDS011;51386;53.082;8.816;2023-07-29T12:09:50;1.83;;;1.73;;
64887;SDS011;51386;53.082;8.816;2023-07-29T12:12:19;2.43;;;1.60;;
64887;SDS011;51386;53.082;8.816;2023-07-29T12:14:49;2.13;;;1.83;;
64887;SDS011;51386;53.082;8.816;2023-07-29T12:17:16;1.97;;;1.60;;
64887;SDS011;51386;53.082;8.816;2023-07-29T12:19:44;1.90;;;1.70;;
64887;SDS011;51386;53.082;8.816;2023-07-29T12:22:17;3.17;;;2.00;;
64887;SDS011;51386;53.082;8.816;2023-07-29T12:24:46;3.47;;;2.00;;
64887;SDS011;51386;53.082;8.816;2023-07-29T12:27:13;1.90;;;1.63;;
64887;SDS011;51386;53.082;8.816;2023-07-29T12:29:44;1.93;;;1.70;;
64887;SDS011;51386;53.082;8.816;2023-07-29T12:32:13;2.10;;;1.90;;
64887;SDS011;51386;53.082;8.816;2023-07-29T12:34:40;2.27;;;1.70;;
64887;SDS011;51386;53.082;8.816;2023-07-29T12:37:07;1.77;;;1.67;;
64887;SDS011;51386;53.082;8.816;2023-07-29T12:39:40;2.23;;;1.63;;
64887;SDS011;51386;53.082;8.816;2023-07-29T12:42:08;2.07;;;1.83;;
64887;SDS011;51386;53.082;8.816;2023-07-29T12:44:36;2.00;;;1.90;;
64887;SDS011;51386;53.082;8.816;2023-07-29T12:47:05;2.40;;;1.60;;
64887;SDS011;51386;53.082;8.816;2023-07-29T12:49:32;2.20;;;2.00;;
64887;SDS011;51386;53.082;8.816;2023-07-29T12:51:59;1.93;;;1.40;;
64887;SDS011;51386;53.082;8.816;2023-07-29T12:54:27;2.57;;;1.80;;
64887;SDS011;51386;53.082;8.816;2023-07-29T12:56:55;2.23;;;2.03;;
64887;SDS011;51386;53.082;8.816;2023-07-29T12:59:22;1.73;;;1.63;;
64887;SDS011;51386;53.082;8.816;2023-07-29T13:01:49;2.13;;;1.67;;
64887;SDS011;51386;53.082;8.816;2023-07-29T13:04:16;1.80;;;1.70;;
64887;SDS011;51386;53.082;8.816;2023-07-29T13:06:43;1.83;;;1.63;;
64887;SDS011;51386;53.082;8.816;2023-07-29T13:09:10;3.77;;;1.80;;
64887;SDS011;51386;53.082;8.816;2023-07-29T13:11:37;1.50;;;1.40;;
64887;SDS011;51386;53.082;8.816;2023-07-29T13:14:05;1.80;;;1.70;;
64887;SDS011;51386;53.082;8.816;2023-07-29T13:16:32;2.60;;;1.70;;
64887;SDS011;51386;53.082;8.816;2023-07-29T13:18:59;3.47;;;1.80;;
64887;SDS011;51386;53.082;8.816;2023-07-29T13:21:26;2.03;;;1.70;;
64887;SDS011;51386;53.082;8.816;2023-07-29T13:23:53;2.80;;;1.90;;
64887;SDS011;51386;53.082;8.816;2023-07-29T13:26:20;2.73;;;1.97;;
64887;SDS011;51386;53.082;8.816;2023-07-29T13:28:47;1.87;;;1.60;;
64887;SDS011;51386;53.082;8.816;2023-07-29T13:31:16;2.07;;;1.97;;
64887;SDS011;51386;53.082;8.816;2023-07-29T13:33:43;1.80;;;1.70;;
64887;SDS011;51386;53.082;8.816;2023-07-29T13:36:10;2.93;;;1.70;;
64887;SDS011;51386;53.082;8.816;2023-07-29T13:38:37;1.87;;;1.77;;
64887;SDS011;51386;53.082;8.816;2023-07-29T13:41:04;1.73;;;1.57;;
64887;SDS011;51386;53.082;8.816;2023-07-29T13:43:31;3.20;;;1.90;;
64887;SDS011;51386;53.082;8.816;2023-07-29T13:45:59;1.87;;;1.50;;
64887;SDS011;51386;53.082;8.816;2023-07-29T13:48:27;1.80;;;1.60;;
64887;SDS011;51386;53.082;8.816;2023-07-29T13:50:54;1.97;;;1.40;;
64887;SDS011;51386;53.082;8.816;2023-07-29T13:53:21;1.70;;;1.50;;
64887;SDS011;51386;53.082;8.816;2023-07-29T13:55:48;2.40;;;1.90;;
64887;SDS011;51386;53.082;8.816;2023-07-29T13:58:15;2.03;;;1.60;;
64887;SDS011;51386;53.082;8.816;2023-07-29T14:00:42;1.70;;;1.40;;
64887;SDS011;51386;53.082;8.816;2023-07-29T14:03:09;1.77;;;1.67;;
64887;SDS011;51386;53.082;8.816;2023-07-29T14:05:38;2.23;;;1.57;;
64887;SDS011;51386;53.082;8.816;2023-07-29T14:08:05;2.43;;;1.70;;
64887;SDS011;51386;53.082;8.816;2023-07-29T14:10:32;1.93;;;1.80;;
64887;SDS011;51386;53.082;8.816;2023-07-29T14:12:59;2.70;;;1.80;;
64887;SDS011;51386;53.082;8.816;2023-07-29T14:15:26;1.67;;;1.57;;
64887;SDS011;51386;53.082;8.816;2023-07-29T14:17:54;2.00;;;1.83;;
64887;SDS011;51386;53.082;8.816;2023-07-29T14:20:21;1.67;;;1.50;;
64887;SDS011;51386;53.082;8.816;2023-07-29T14:22:50;1.53;;;1.43;;
64887;SDS011;51386;53.082;8.816;2023-07-29T14:25:17;2.23;;;1.80;;
64887;SDS011;51386;53.082;8.816;2023-07-29T14:27:44;1.70;;;1.60;;
64887;SDS011;51386;53.082;8.816;2023-07-29T14:30:11;2.27;;;1.60;;
64887;SDS011;51386;53.082;8.816;2023-07-29T14:32:38;2.17;;;2.00;;
64887;SDS011;51386;53.082;8.816;2023-07-29T14:35:06;1.40;;;1.30;;
64887;SDS011;51386;53.082;8.816;2023-07-29T14:37:34;2.17;;;1.77;;
64887;SDS011;51386;53.082;8.816;2023-07-29T14:40:03;1.67;;;1.57;;
64887;SDS011;51386;53.082;8.816;2023-07-29T14:42:32;2.80;;;1.90;;
64887;SDS011;51386;53.082;8.816;2023-07-29T14:45:01;1.90;;;1.80;;
64887;SDS011;51386;53.082;8.816;2023-07-29T14:47:28;2.23;;;1.57;;
64887;SDS011;51386;53.082;8.816;2023-07-29T14:50:01;1.83;;;1.67;;